sensor_id;sensor_type;location;lat;lon;timestamp;pressure;altitude;pressure_sealevel;temperature;humidity
61345;BME280;47216;42.656;23.232;2022-12-18T00:01:32;94634.94;;;7.00;89.80
61345;BME280;47216;42.656;23.232;2022-12-18T00:03:59;94638.94;;;6.96;90.00
61345;BME280;47216;42.656;23.232;2022-12-18T00:06:26;94637.31;;;7.02;88.67
61345;BME280;47216;42.656;23.232;2022-12-18T00:08:54;94635.94;;;6.99;88.98
61345;BME280;47216;42.656;23.232;2022-12-18T00:11:22;94646.91;;;7.01;88.58
61345;BME280;47216;42.656;23.232;2022-12-18T00:13:50;94649.50;;;7.01;88.05
61345;BME280;47216;42.656;23.232;2022-12-18T00:16:17;94642.31;;;6.97;87.14
61345;BME280;47216;42.656;23.232;2022-12-18T00:18:45;94648.31;;;6.97;86.61
61345;BME280;47216;42.656;23.232;2022-12-18T00:21:12;94648.75;;;6.81;86.48
61345;BME280;47216;42.656;23.232;2022-12-18T00:23:40;94651.31;;;6.94;85.88
61345;BME280;47216;42.656;23.232;2022-12-18T00:26:07;94655.91;;;6.85;86.03
61345;BME280;47216;42.656;23.232;2022-12-18T00:28:34;94666.69;;;6.89;85.24
61345;BME280;47216;42.656;23.232;2022-12-18T00:31:02;94666.28;;;6.85;84.42
61345;BME280;47216;42.656;23.232;2022-12-18T00:33:29;94662.72;;;6.73;85.43
61345;BME280;47216;42.656;23.232;2022-12-18T00:36:00;94665.53;;;6.71;86.38
61345;BME280;47216;42.656;23.232;2022-12-18T00:38:26;94664.31;;;6.67;86.95
61345;BME280;47216;42.656;23.232;2022-12-18T00:40:53;94677.50;;;6.66;86.08
61345;BME280;47216;42.656;23.232;2022-12-18T00:43:19;94671.91;;;6.62;86.24
61345;BME280;47216;42.656;23.232;2022-12-18T00:45:45;94673.53;;;6.50;86.75
61345;BME280;47216;42.656;23.232;2022-12-18T00:48:13;94681.91;;;6.52;86.04
61345;BME280;47216;42.656;23.232;2022-12-18T00:50:39;94681.09;;;6.58;86.28
61345;BME280;47216;42.656;23.232;2022-12-18T00:53:06;94682.28;;;6.62;85.10
61345;BME280;47216;42.656;23.232;2022-12-18T00:55:32;94682.47;;;6.67;83.90
61345;BME280;47216;42.656;23.232;2022-12-18T00:57:59;94688.66;;;6.53;84.23
61345;BME280;47216;42.656;23.232;2022-12-18T01:00:26;94690.06;;;6.49;85.27
61345;BME280;47216;42.656;23.232;2022-12-18T01:02:52;94687.88;;;6.46;84.67
61345;BME280;47216;42.656;23.232;2022-12-18T01:05:20;94687.06;;;6.65;84.10
61345;BME280;47216;42.656;23.232;2022-12-18T01:07:47;94695.06;;;6.57;83.91
61345;BME280;47216;42.656;23.232;2022-12-18T01:10:13;94699.63;;;6.55;83.28
61345;BME280;47216;42.656;23.232;2022-12-18T01:12:40;94693.25;;;6.51;83.57
61345;BME280;47216;42.656;23.232;2022-12-18T01:15:07;94695.84;;;6.38;83.50
61345;BME280;47216;42.656;23.232;2022-12-18T01:17:34;94700.63;;;6.41;83.72
61345;BME280;47216;42.656;23.232;2022-12-18T01:20:01;94701.44;;;6.48;82.28
61345;BME280;47216;42.656;23.232;2022-12-18T01:22:29;94702.25;;;6.28;83.56
61345;BME280;47216;42.656;23.232;2022-12-18T01:24:55;94700.03;;;6.25;83.33
61345;BME280;47216;42.656;23.232;2022-12-18T01:27:22;94698.63;;;6.16;84.17
61345;BME280;47216;42.656;23.232;2022-12-18T01:29:48;94699.44;;;6.23;84.23
61345;BME280;47216;42.656;23.232;2022-12-18T01:32:15;94701.44;;;6.28;84.17
61345;BME280;47216;42.656;23.232;2022-12-18T01:34:42;94712.59;;;6.28;83.25
61345;BME280;47216;42.656;23.232;2022-12-18T01:37:08;94718.34;;;6.30;82.74
61345;BME280;47216;42.656;23.232;2022-12-18T01:39:37;94712.19;;;6.18;82.67
61345;BME280;47216;42.656;23.232;2022-12-18T01:42:05;94716.97;;;6.15;82.64
61345;BME280;47216;42.656;23.232;2022-12-18T01:44:52;94718.16;;;5.99;83.05
61345;BME280;47216;42.656;23.232;2022-12-18T01:47:20;94716.16;;;6.01;82.72
61345;BME280;47216;42.656;23.232;2022-12-18T01:49:47;94723.28;;;5.85;83.91
61345;BME280;47216;42.656;23.232;2022-12-18T01:52:14;94722.47;;;5.85;84.82
61345;BME280;47216;42.656;23.232;2022-12-18T01:54:42;94719.88;;;5.78;85.33
61345;BME280;47216;42.656;23.232;2022-12-18T01:57:09;94727.22;;;5.81;85.53
61345;BME280;47216;42.656;23.232;2022-12-18T01:59:35;94728.66;;;5.90;85.14
61345;BME280;47216;42.656;23.232;2022-12-18T02:02:03;94722.88;;;5.88;84.94
61345;BME280;47216;42.656;23.232;2022-12-18T02:04:29;94714.97;;;5.97;83.82
61345;BME280;47216;42.656;23.232;2022-12-18T02:06:57;94722.53;;;6.05;83.11
61345;BME280;47216;42.656;23.232;2022-12-18T02:09:28;94722.13;;;5.95;83.09
61345;BME280;47216;42.656;23.232;2022-12-18T02:12:00;94734.00;;;5.89;83.32
61345;BME280;47216;42.656;23.232;2022-12-18T02:14:31;94729.66;;;5.89;82.54
61345;BME280;47216;42.656;23.232;2022-12-18T02:17:02;94731.19;;;5.77;83.20
61345;BME280;47216;42.656;23.232;2022-12-18T02:19:41;94741.34;;;5.72;83.65
61345;BME280;47216;42.656;23.232;2022-12-18T02:22:14;94740.38;;;5.73;84.83
61345;BME280;47216;42.656;23.232;2022-12-18T02:24:45;94752.91;;;5.76;85.05
61345;BME280;47216;42.656;23.232;2022-12-18T02:27:18;94757.06;;;5.77;84.44
61345;BME280;47216;42.656;23.232;2022-12-18T02:29:47;94748.34;;;5.78;83.28
61345;BME280;47216;42.656;23.232;2022-12-18T02:32:17;94749.06;;;5.65;83.06
61345;BME280;47216;42.656;23.232;2022-12-18T02:34:46;94745.50;;;5.60;83.12
61345;BME280;47216;42.656;23.232;2022-12-18T02:37:14;94754.03;;;5.60;83.72
61345;BME280;47216;42.656;23.232;2022-12-18T02:39:43;94755.44;;;5.63;84.34
61345;BME280;47216;42.656;23.232;2022-12-18T02:42:10;94766.22;;;5.66;84.45
61345;BME280;47216;42.656;23.232;2022-12-18T02:44:43;94750.28;;;5.63;84.34
61345;BME280;47216;42.656;23.232;2022-12-18T02:47:10;94764.22;;;5.62;84.91
61345;BME280;47216;42.656;23.232;2022-12-18T02:49:40;94765.41;;;5.59;83.67
61345;BME280;47216;42.656;23.232;2022-12-18T02:52:12;94765.81;;;5.69;83.70
61345;BME280;47216;42.656;23.232;2022-12-18T02:54:48;94765.06;;;5.82;82.53
61345;BME280;47216;42.656;23.232;2022-12-18T02:57:19;94752.53;;;5.93;81.22
61345;BME280;47216;42.656;23.232;2022-12-18T02:59:52;94761.47;;;5.77;81.79
61345;BME280;47216;42.656;23.232;2022-12-18T03:02:23;94771.22;;;5.81;81.13
61345;BME280;47216;42.656;23.232;2022-12-18T03:04:54;94777.78;;;5.77;81.38
61345;BME280;47216;42.656;23.232;2022-12-18T03:07:27;94781.75;;;5.73;81.12
61345;BME280;47216;42.656;23.232;2022-12-18T03:09:59;94783.56;;;5.79;80.27
61345;BME280;47216;42.656;23.232;2022-12-18T03:12:28;94785.28;;;5.59;81.00
61345;BME280;47216;42.656;23.232;2022-12-18T03:14:58;94789.25;;;5.61;81.14
61345;BME280;47216;42.656;23.232;2022-12-18T03:17:26;94796.97;;;5.48;82.28
61345;BME280;47216;42.656;23.232;2022-12-18T03:19:54;94798.78;;;5.54;81.36
61345;BME280;47216;42.656;23.232;2022-12-18T03:22:23;94801.94;;;5.50;80.31
61345;BME280;47216;42.656;23.232;2022-12-18T03:24:50;94794.97;;;5.43;81.32
61345;BME280;47216;42.656;23.232;2022-12-18T03:27:18;94801.94;;;5.50;80.66
61345;BME280;47216;42.656;23.232;2022-12-18T03:29:47;94801.72;;;5.44;80.89
61345;BME280;47216;42.656;23.232;2022-12-18T03:32:19;94798.91;;;5.39;80.97
61345;BME280;47216;42.656;23.232;2022-12-18T03:34:48;94803.63;;;5.29;81.42
61345;BME280;47216;42.656;23.232;2022-12-18T03:37:16;94805.84;;;5.32;81.74
61345;BME280;47216;42.656;23.232;2022-12-18T03:39:43;94806.03;;;5.31;82.19
61345;BME280;47216;42.656;23.232;2022-12-18T03:42:10;94815.41;;;5.38;81.84
61345;BME280;47216;42.656;23.232;2022-12-18T03:44:42;94823.41;;;5.43;80.57
61345;BME280;47216;42.656;23.232;2022-12-18T03:47:13;94828.94;;;5.40;80.59
61345;BME280;47216;42.656;23.232;2022-12-18T03:49:45;94834.66;;;5.29;81.28
61345;BME280;47216;42.656;23.232;2022-12-18T03:52:15;94841.00;;;5.20;81.91
61345;BME280;47216;42.656;23.232;2022-12-18T03:54:43;94834.88;;;5.28;81.50
61345;BME280;47216;42.656;23.232;2022-12-18T03:57:13;94834.38;;;5.17;82.00
61345;BME280;47216;42.656;23.232;2022-12-18T03:59:40;94834.81;;;5.21;82.32
61345;BME280;47216;42.656;23.232;2022-12-18T04:02:09;94833.81;;;5.22;82.20
61345;BME280;47216;42.656;23.232;2022-12-18T04:04:35;94838.00;;;5.23;81.94
61345;BME280;47216;42.656;23.232;2022-12-18T04:07:05;94839.50;;;5.39;81.57
61345;BME280;47216;42.656;23.232;2022-12-18T04:09:33;94844.72;;;5.45;79.94
61345;BME280;47216;42.656;23.232;2022-12-18T04:12:00;94850.38;;;5.28;80.46
61345;BME280;47216;42.656;23.232;2022-12-18T04:14:26;94852.16;;;5.27;80.75
61345;BME280;47216;42.656;23.232;2022-12-18T04:16:53;94861.75;;;5.33;80.19
61345;BME280;47216;42.656;23.232;2022-12-18T04:19:19;94855.38;;;5.36;79.29
61345;BME280;47216;42.656;23.232;2022-12-18T04:21:46;94858.31;;;5.26;79.50
61345;BME280;47216;42.656;23.232;2022-12-18T04:24:14;94859.53;;;5.30;79.12
61345;BME280;47216;42.656;23.232;2022-12-18T04:26:40;94868.56;;;5.13;79.14
61345;BME280;47216;42.656;23.232;2022-12-18T04:29:07;94871.06;;;4.99;80.38
61345;BME280;47216;42.656;23.232;2022-12-18T04:31:33;94873.03;;;4.97;81.08
61345;BME280;47216;42.656;23.232;2022-12-18T04:34:00;94876.41;;;4.98;80.87
61345;BME280;47216;42.656;23.232;2022-12-18T04:36:27;94884.22;;;5.04;80.89
61345;BME280;47216;42.656;23.232;2022-12-18T04:38:53;94888.72;;;5.24;79.88
61345;BME280;47216;42.656;23.232;2022-12-18T04:41:21;94889.53;;;5.24;79.20
61345;BME280;47216;42.656;23.232;2022-12-18T04:43:48;94900.44;;;5.20;78.66
61345;BME280;47216;42.656;23.232;2022-12-18T04:46:14;94899.91;;;5.03;79.32
61345;BME280;47216;42.656;23.232;2022-12-18T04:48:41;94900.28;;;5.00;79.46
61345;BME280;47216;42.656;23.232;2022-12-18T04:51:07;94900.53;;;5.05;79.26
61345;BME280;47216;42.656;23.232;2022-12-18T04:53:34;94906.31;;;5.07;78.99
61345;BME280;47216;42.656;23.232;2022-12-18T04:56:04;94907.72;;;5.10;79.47
61345;BME280;47216;42.656;23.232;2022-12-18T04:58:33;94909.44;;;5.02;79.30
61345;BME280;47216;42.656;23.232;2022-12-18T05:00:59;94916.97;;;4.97;79.93
61345;BME280;47216;42.656;23.232;2022-12-18T05:03:26;94914.16;;;4.92;79.58
61345;BME280;47216;42.656;23.232;2022-12-18T05:05:52;94924.47;;;4.92;80.79
61345;BME280;47216;42.656;23.232;2022-12-18T05:08:19;94930.91;;;5.03;79.59
61345;BME280;47216;42.656;23.232;2022-12-18T05:10:45;94931.63;;;4.90;78.69
61345;BME280;47216;42.656;23.232;2022-12-18T05:13:12;94933.38;;;4.90;79.41
61345;BME280;47216;42.656;23.232;2022-12-18T05:15:40;94935.69;;;4.99;77.67
61345;BME280;47216;42.656;23.232;2022-12-18T05:18:07;94945.88;;;4.86;78.47
61345;BME280;47216;42.656;23.232;2022-12-18T05:20:33;94944.53;;;4.90;78.93
61345;BME280;47216;42.656;23.232;2022-12-18T05:23:00;94940.78;;;4.93;78.84
61345;BME280;47216;42.656;23.232;2022-12-18T05:25:26;94944.63;;;5.03;78.00
61345;BME280;47216;42.656;23.232;2022-12-18T05:27:53;94952.22;;;5.05;76.78
61345;BME280;47216;42.656;23.232;2022-12-18T05:30:19;94959.28;;;4.96;76.50
61345;BME280;47216;42.656;23.232;2022-12-18T05:32:48;94951.28;;;4.91;76.90
61345;BME280;47216;42.656;23.232;2022-12-18T05:35:15;94959.72;;;4.78;78.34
61345;BME280;47216;42.656;23.232;2022-12-18T05:37:42;94963.53;;;4.82;77.35
61345;BME280;47216;42.656;23.232;2022-12-18T05:40:09;94969.50;;;4.83;78.19
61345;BME280;47216;42.656;23.232;2022-12-18T05:42:35;94975.59;;;4.75;78.25
61345;BME280;47216;42.656;23.232;2022-12-18T05:45:02;94978.63;;;4.79;77.78
61345;BME280;47216;42.656;23.232;2022-12-18T05:47:29;94982.53;;;4.96;76.72
61345;BME280;47216;42.656;23.232;2022-12-18T05:49:57;94984.09;;;4.91;77.51
61345;BME280;47216;42.656;23.232;2022-12-18T05:52:23;94986.50;;;4.92;77.27
61345;BME280;47216;42.656;23.232;2022-12-18T05:54:50;94987.31;;;4.93;76.79
61345;BME280;47216;42.656;23.232;2022-12-18T05:57:16;94984.16;;;4.97;77.01
61345;BME280;47216;42.656;23.232;2022-12-18T05:59:43;94992.78;;;4.83;76.57
61345;BME280;47216;42.656;23.232;2022-12-18T06:02:09;94987.09;;;4.73;76.75
61345;BME280;47216;42.656;23.232;2022-12-18T06:04:36;94992.97;;;4.67;77.47
61345;BME280;47216;42.656;23.232;2022-12-18T06:07:04;94997.41;;;4.73;76.88
61345;BME280;47216;42.656;23.232;2022-12-18T06:09:30;95001.72;;;4.66;77.28
61345;BME280;47216;42.656;23.232;2022-12-18T06:11:58;95007.25;;;4.62;78.06
61345;BME280;47216;42.656;23.232;2022-12-18T06:14:24;95016.84;;;4.69;78.52
61345;BME280;47216;42.656;23.232;2022-12-18T06:16:51;95011.03;;;4.81;76.92
61345;BME280;47216;42.656;23.232;2022-12-18T06:19:17;95007.50;;;4.68;76.92
61345;BME280;47216;42.656;23.232;2022-12-18T06:21:44;95014.88;;;4.71;76.79
61345;BME280;47216;42.656;23.232;2022-12-18T06:24:12;95015.63;;;4.65;77.12
61345;BME280;47216;42.656;23.232;2022-12-18T06:26:38;95019.53;;;4.60;76.89
61345;BME280;47216;42.656;23.232;2022-12-18T06:29:05;95019.97;;;4.64;77.25
61345;BME280;47216;42.656;23.232;2022-12-18T06:31:31;95021.88;;;4.55;76.93
61345;BME280;47216;42.656;23.232;2022-12-18T06:33:59;95026.59;;;4.52;77.13
61345;BME280;47216;42.656;23.232;2022-12-18T06:36:27;95033.97;;;4.55;77.12
61345;BME280;47216;42.656;23.232;2022-12-18T06:38:54;95034.03;;;4.61;76.79
61345;BME280;47216;42.656;23.232;2022-12-18T06:41:22;95036.38;;;4.56;76.85
61345;BME280;47216;42.656;23.232;2022-12-18T06:43:49;95033.41;;;4.59;77.89
61345;BME280;47216;42.656;23.232;2022-12-18T06:46:15;95039.75;;;4.57;76.95
61345;BME280;47216;42.656;23.232;2022-12-18T06:48:42;95051.03;;;4.71;76.69
61345;BME280;47216;42.656;23.232;2022-12-18T06:51:08;95047.41;;;4.65;75.80
61345;BME280;47216;42.656;23.232;2022-12-18T06:53:35;95058.38;;;4.67;76.48
61345;BME280;47216;42.656;23.232;2022-12-18T06:56:02;95054.50;;;4.78;75.58
61345;BME280;47216;42.656;23.232;2022-12-18T06:58:30;95051.03;;;4.71;75.71
61345;BME280;47216;42.656;23.232;2022-12-18T07:00:59;95056.03;;;4.57;76.91
61345;BME280;47216;42.656;23.232;2022-12-18T07:03:26;95058.47;;;4.44;77.15
61345;BME280;47216;42.656;23.232;2022-12-18T07:05:53;95060.34;;;4.50;76.98
61345;BME280;47216;42.656;23.232;2022-12-18T07:08:19;95057.56;;;4.67;75.52
61345;BME280;47216;42.656;23.232;2022-12-18T07:10:46;95067.44;;;4.78;74.79
61345;BME280;47216;42.656;23.232;2022-12-18T07:13:14;95065.75;;;4.70;74.60
61345;BME280;47216;42.656;23.232;2022-12-18T07:15:42;95058.28;;;4.60;75.92
61345;BME280;47216;42.656;23.232;2022-12-18T07:18:08;95068.78;;;4.59;76.23
61345;BME280;47216;42.656;23.232;2022-12-18T07:20:35;95073.69;;;4.54;76.61
61345;BME280;47216;42.656;23.232;2022-12-18T07:23:01;95073.53;;;4.55;77.34
61345;BME280;47216;42.656;23.232;2022-12-18T07:25:28;95071.00;;;4.77;74.59
61345;BME280;47216;42.656;23.232;2022-12-18T07:27:54;95075.28;;;4.70;74.22
61345;BME280;47216;42.656;23.232;2022-12-18T07:30:21;95073.06;;;4.67;74.49
61345;BME280;47216;42.656;23.232;2022-12-18T07:32:49;95070.91;;;4.70;74.50
61345;BME280;47216;42.656;23.232;2022-12-18T07:35:15;95079.66;;;4.69;74.43
61345;BME280;47216;42.656;23.232;2022-12-18T07:37:42;95087.13;;;4.64;74.93
61345;BME280;47216;42.656;23.232;2022-12-18T07:40:09;95083.13;;;4.61;75.30
61345;BME280;47216;42.656;23.232;2022-12-18T07:42:36;95090.25;;;4.59;76.08
61345;BME280;47216;42.656;23.232;2022-12-18T07:45:03;95082.16;;;4.62;74.41
61345;BME280;47216;42.656;23.232;2022-12-18T07:47:30;95082.28;;;4.91;75.28
61345;BME280;47216;42.656;23.232;2022-12-18T07:49:59;95091.09;;;4.96;74.68
61345;BME280;47216;42.656;23.232;2022-12-18T07:52:25;95088.25;;;4.91;73.74
61345;BME280;47216;42.656;23.232;2022-12-18T07:54:52;95098.75;;;5.04;73.59
61345;BME280;47216;42.656;23.232;2022-12-18T07:57:18;95094.13;;;4.85;73.76
61345;BME280;47216;42.656;23.232;2022-12-18T07:59:45;95095.09;;;4.99;72.83
61345;BME280;47216;42.656;23.232;2022-12-18T08:02:11;95103.16;;;4.89;72.25
61345;BME280;47216;42.656;23.232;2022-12-18T08:04:38;95111.19;;;4.79;73.17
61345;BME280;47216;42.656;23.232;2022-12-18T08:07:06;95111.63;;;4.83;73.18
61345;BME280;47216;42.656;23.232;2022-12-18T08:09:32;95121.50;;;4.94;73.06
61345;BME280;47216;42.656;23.232;2022-12-18T08:11:59;95113.06;;;4.71;72.52
61345;BME280;47216;42.656;23.232;2022-12-18T08:14:25;95117.44;;;4.70;73.67
61345;BME280;47216;42.656;23.232;2022-12-18T08:16:52;95126.34;;;4.68;74.18
61345;BME280;47216;42.656;23.232;2022-12-18T08:19:18;95125.00;;;4.72;73.18
61345;BME280;47216;42.656;23.232;2022-12-18T08:21:45;95124.81;;;4.58;73.79
61345;BME280;47216;42.656;23.232;2022-12-18T08:24:13;95130.00;;;4.58;74.90
61345;BME280;47216;42.656;23.232;2022-12-18T08:26:39;95136.31;;;4.71;76.04
61345;BME280;47216;42.656;23.232;2022-12-18T08:29:06;95133.56;;;4.72;76.61
61345;BME280;47216;42.656;23.232;2022-12-18T08:31:32;95131.75;;;4.73;76.36
61345;BME280;47216;42.656;23.232;2022-12-18T08:33:59;95136.56;;;4.76;76.03
61345;BME280;47216;42.656;23.232;2022-12-18T08:36:26;95154.13;;;4.95;74.04
61345;BME280;47216;42.656;23.232;2022-12-18T08:38:52;95142.06;;;5.02;73.04
61345;BME280;47216;42.656;23.232;2022-12-18T08:41:20;95144.22;;;4.84;72.61
61345;BME280;47216;42.656;23.232;2022-12-18T08:43:47;95147.34;;;4.79;73.58
61345;BME280;47216;42.656;23.232;2022-12-18T08:46:32;95144.06;;;4.86;73.48
61345;BME280;47216;42.656;23.232;2022-12-18T08:49:00;95150.81;;;5.01;72.04
61345;BME280;47216;42.656;23.232;2022-12-18T08:51:26;95147.44;;;4.86;71.72
61345;BME280;47216;42.656;23.232;2022-12-18T08:53:53;95145.31;;;4.75;73.17
61345;BME280;47216;42.656;23.232;2022-12-18T08:56:21;95148.34;;;4.78;73.10
61345;BME280;47216;42.656;23.232;2022-12-18T08:58:47;95148.78;;;4.82;73.96
61345;BME280;47216;42.656;23.232;2022-12-18T09:01:17;95145.47;;;4.73;74.87
61345;BME280;47216;42.656;23.232;2022-12-18T09:03:43;95149.16;;;4.79;75.45
61345;BME280;47216;42.656;23.232;2022-12-18T09:06:12;95141.66;;;4.84;74.77
61345;BME280;47216;42.656;23.232;2022-12-18T09:08:39;95143.44;;;4.83;75.18
61345;BME280;47216;42.656;23.232;2022-12-18T09:11:09;95139.44;;;4.81;75.96
61345;BME280;47216;42.656;23.232;2022-12-18T09:13:39;95146.28;;;4.89;74.24
61345;BME280;47216;42.656;23.232;2022-12-18T09:16:06;95140.66;;;4.85;74.53
61345;BME280;47216;42.656;23.232;2022-12-18T09:18:32;95141.41;;;4.79;74.60
61345;BME280;47216;42.656;23.232;2022-12-18T09:20:59;95140.84;;;4.69;75.49
61345;BME280;47216;42.656;23.232;2022-12-18T09:23:25;95148.88;;;4.74;75.88
61345;BME280;47216;42.656;23.232;2022-12-18T09:25:52;95138.47;;;4.67;76.18
61345;BME280;47216;42.656;23.232;2022-12-18T09:28:24;95134.88;;;4.68;75.61
61345;BME280;47216;42.656;23.232;2022-12-18T09:30:52;95138.81;;;4.79;74.57
61345;BME280;47216;42.656;23.232;2022-12-18T09:33:19;95144.78;;;4.65;74.93
61345;BME280;47216;42.656;23.232;2022-12-18T09:35:45;95140.50;;;4.72;74.54
61345;BME280;47216;42.656;23.232;2022-12-18T09:38:12;95146.84;;;4.69;75.31
61345;BME280;47216;42.656;23.232;2022-12-18T09:40:40;95142.72;;;4.75;73.40
61345;BME280;47216;42.656;23.232;2022-12-18T09:43:09;95148.69;;;4.60;74.09
61345;BME280;47216;42.656;23.232;2022-12-18T09:45:41;95154.19;;;4.57;74.15
61345;BME280;47216;42.656;23.232;2022-12-18T09:48:10;95148.44;;;4.70;73.73
61345;BME280;47216;42.656;23.232;2022-12-18T09:50:42;95148.69;;;4.60;74.59
61345;BME280;47216;42.656;23.232;2022-12-18T09:53:10;95144.78;;;4.65;73.98
61345;BME280;47216;42.656;23.232;2022-12-18T09:55:40;95134.16;;;4.59;74.09
61345;BME280;47216;42.656;23.232;2022-12-18T09:58:10;95133.47;;;4.66;74.66
61345;BME280;47216;42.656;23.232;2022-12-18T10:00:40;95133.19;;;4.60;74.29
61345;BME280;47216;42.656;23.232;2022-12-18T10:03:09;95136.41;;;4.77;75.48
61345;BME280;47216;42.656;23.232;2022-12-18T10:05:39;95133.53;;;4.57;74.42
61345;BME280;47216;42.656;23.232;2022-12-18T10:08:09;95143.34;;;4.77;74.11
61345;BME280;47216;42.656;23.232;2022-12-18T10:10:39;95131.34;;;4.69;75.26
61345;BME280;47216;42.656;23.232;2022-12-18T10:13:10;95136.84;;;4.81;74.38
61345;BME280;47216;42.656;23.232;2022-12-18T10:15:40;95135.31;;;4.87;73.28
61345;BME280;47216;42.656;23.232;2022-12-18T10:18:15;95142.34;;;4.78;73.34
61345;BME280;47216;42.656;23.232;2022-12-18T10:20:46;95143.44;;;4.69;71.90
61345;BME280;47216;42.656;23.232;2022-12-18T10:23:15;95153.75;;;4.69;72.00
61345;BME280;47216;42.656;23.232;2022-12-18T10:25:47;95150.91;;;4.63;71.64
61345;BME280;47216;42.656;23.232;2022-12-18T10:28:16;95151.91;;;4.62;72.97
61345;BME280;47216;42.656;23.232;2022-12-18T10:30:44;95149.03;;;4.57;74.18
61345;BME280;47216;42.656;23.232;2022-12-18T10:33:11;95146.91;;;4.76;71.71
61345;BME280;47216;42.656;23.232;2022-12-18T10:35:40;95153.97;;;4.67;72.09
61345;BME280;47216;42.656;23.232;2022-12-18T10:38:20;95154.38;;;4.71;72.26
61345;BME280;47216;42.656;23.232;2022-12-18T10:40:48;95147.19;;;4.81;71.32
61345;BME280;47216;42.656;23.232;2022-12-18T10:43:16;95155.53;;;4.68;70.89
61345;BME280;47216;42.656;23.232;2022-12-18T10:45:57;95152.00;;;4.69;71.22
61345;BME280;47216;42.656;23.232;2022-12-18T10:48:24;95155.19;;;4.56;71.51
61345;BME280;47216;42.656;23.232;2022-12-18T10:50:51;95158.22;;;4.60;71.61
61345;BME280;47216;42.656;23.232;2022-12-18T10:53:20;95151.53;;;4.66;70.43
61345;BME280;47216;42.656;23.232;2022-12-18T10:55:47;95153.22;;;4.58;69.86
61345;BME280;47216;42.656;23.232;2022-12-18T10:58:16;95157.06;;;4.62;70.74
61345;BME280;47216;42.656;23.232;2022-12-18T11:00:51;95157.78;;;4.56;70.91
61345;BME280;47216;42.656;23.232;2022-12-18T11:03:29;95153.88;;;4.60;71.54
61345;BME280;47216;42.656;23.232;2022-12-18T11:06:01;95150.91;;;4.63;69.62
61345;BME280;47216;42.656;23.232;2022-12-18T11:08:29;95157.06;;;4.62;69.45
61345;BME280;47216;42.656;23.232;2022-12-18T11:10:56;95164.00;;;4.62;69.70
61345;BME280;47216;42.656;23.232;2022-12-18T11:13:23;95162.41;;;4.76;70.17
61345;BME280;47216;42.656;23.232;2022-12-18T11:15:50;95159.47;;;4.64;68.94
61345;BME280;47216;42.656;23.232;2022-12-18T11:18:17;95161.88;;;4.66;69.68
61345;BME280;47216;42.656;23.232;2022-12-18T11:20:49;95165.91;;;4.83;68.63
61345;BME280;47216;42.656;23.232;2022-12-18T11:23:17;95172.41;;;4.79;68.48
61345;BME280;47216;42.656;23.232;2022-12-18T11:25:51;95170.06;;;4.84;69.20
61345;BME280;47216;42.656;23.232;2022-12-18T11:28:26;95168.81;;;4.80;68.97
61345;BME280;47216;42.656;23.232;2022-12-18T11:31:08;95170.78;;;4.78;68.33
61345;BME280;47216;42.656;23.232;2022-12-18T11:33:36;95163.28;;;4.68;68.95
61345;BME280;47216;42.656;23.232;2022-12-18T11:36:04;95167.41;;;4.77;69.23
61345;BME280;47216;42.656;23.232;2022-12-18T11:38:34;95170.06;;;4.99;65.09
61345;BME280;47216;42.656;23.232;2022-12-18T11:41:03;95170.06;;;4.84;64.74
61345;BME280;47216;42.656;23.232;2022-12-18T11:43:32;95166.94;;;4.59;65.86
61345;BME280;47216;42.656;23.232;2022-12-18T11:46:02;95169.78;;;4.49;67.20
61345;BME280;47216;42.656;23.232;2022-12-18T11:48:32;95169.09;;;4.55;67.43
61345;BME280;47216;42.656;23.232;2022-12-18T11:51:00;95181.75;;;4.65;66.69
61345;BME280;47216;42.656;23.232;2022-12-18T11:53:29;95172.56;;;4.62;67.10
61345;BME280;47216;42.656;23.232;2022-12-18T11:56:05;95168.09;;;4.56;67.25
61345;BME280;47216;42.656;23.232;2022-12-18T11:58:38;95159.72;;;4.54;67.46
61345;BME280;47216;42.656;23.232;2022-12-18T12:01:10;95148.69;;;4.60;68.22
61345;BME280;47216;42.656;23.232;2022-12-18T12:06:33;95165.53;;;4.86;66.99
61345;BME280;47216;42.656;23.232;2022-12-18T12:09:05;95160.09;;;4.81;65.37
61345;BME280;47216;42.656;23.232;2022-12-18T12:11:38;95162.78;;;4.88;66.37
61345;BME280;47216;42.656;23.232;2022-12-18T12:14:16;95162.31;;;4.84;64.82
61345;BME280;47216;42.656;23.232;2022-12-18T12:16:50;95158.75;;;4.85;65.17
61345;BME280;47216;42.656;23.232;2022-12-18T12:19:22;95164.03;;;4.77;64.68
61345;BME280;47216;42.656;23.232;2022-12-18T12:21:58;95154.66;;;4.76;64.99
61345;BME280;47216;42.656;23.232;2022-12-18T12:24:42;95155.63;;;4.75;65.58
61345;BME280;47216;42.656;23.232;2022-12-18T12:27:16;95150.81;;;4.87;65.63
61345;BME280;47216;42.656;23.232;2022-12-18T12:29:47;95159.75;;;4.84;64.88
61345;BME280;47216;42.656;23.232;2022-12-18T12:32:25;95164.81;;;4.77;64.68
61345;BME280;47216;42.656;23.232;2022-12-18T12:34:59;95165.59;;;4.78;63.77
61345;BME280;47216;42.656;23.232;2022-12-18T12:37:34;95160.97;;;4.58;65.19
61345;BME280;47216;42.656;23.232;2022-12-18T12:40:05;95161.59;;;4.46;66.28
61345;BME280;47216;42.656;23.232;2022-12-18T12:42:35;95161.16;;;4.42;66.58
61345;BME280;47216;42.656;23.232;2022-12-18T12:45:22;95159.72;;;4.39;66.58
61345;BME280;47216;42.656;23.232;2022-12-18T12:47:52;95165.31;;;4.43;67.23
61345;BME280;47216;42.656;23.232;2022-12-18T12:50:20;95170.25;;;4.68;67.00
61345;BME280;47216;42.656;23.232;2022-12-18T12:52:49;95166.78;;;4.75;67.11
61345;BME280;47216;42.656;23.232;2022-12-18T12:55:17;95169.47;;;4.67;67.26
61345;BME280;47216;42.656;23.232;2022-12-18T12:57:48;95167.22;;;4.79;67.38
61345;BME280;47216;42.656;23.232;2022-12-18T13:00:18;95172.13;;;4.74;68.40
61345;BME280;47216;42.656;23.232;2022-12-18T13:02:47;95178.34;;;4.79;67.39
61345;BME280;47216;42.656;23.232;2022-12-18T13:05:16;95176.84;;;4.85;66.90
61345;BME280;47216;42.656;23.232;2022-12-18T13:07:47;95177.91;;;4.76;66.99
61345;BME280;47216;42.656;23.232;2022-12-18T13:10:26;95183.00;;;4.69;67.76